createdAt,value
2022-08-22T00:03:34.870Z,16
2022-08-22T00:06:09.592Z,20
2022-08-22T00:08:51.282Z,20
2022-08-22T00:11:24.187Z,20
2022-08-22T00:14:03.547Z,20
2022-08-22T00:16:36.347Z,20
2022-08-22T00:19:08.915Z,21
2022-08-22T00:21:42.759Z,20
2022-08-22T00:24:14.747Z,19
2022-08-22T00:26:47.291Z,20
2022-08-22T00:29:19.900Z,25
2022-08-22T00:32:00.926Z,20
2022-08-22T00:34:33.141Z,18
2022-08-22T00:37:07.338Z,20
2022-08-22T00:39:39.273Z,25
2022-08-22T00:42:11.940Z,29
2022-08-22T00:44:47.900Z,24
2022-08-22T00:47:20.066Z,24
2022-08-22T00:49:52.424Z,20
2022-08-22T00:52:25.409Z,21
2022-08-22T00:54:58.038Z,24
2022-08-22T00:57:30.723Z,17
2022-08-22T01:00:03.598Z,23
2022-08-22T01:02:36.204Z,23
2022-08-22T01:05:08.473Z,24
2022-08-22T01:07:41.186Z,29
2022-08-22T01:10:13.938Z,24
2022-08-22T01:12:46.586Z,25
2022-08-22T01:15:18.632Z,23
2022-08-22T01:17:50.704Z,24
2022-08-22T01:20:24.424Z,23
2022-08-22T01:22:56.321Z,27
2022-08-22T01:25:28.348Z,21
2022-08-22T01:28:02.737Z,24
2022-08-22T01:30:37.151Z,24
2022-08-22T01:33:08.119Z,18
2022-08-22T01:35:40.089Z,23
2022-08-22T01:38:12.419Z,28
2022-08-22T01:40:54.752Z,25
2022-08-22T01:44:01.412Z,19
2022-08-22T01:46:31.476Z,19
2022-08-22T01:49:03.855Z,20
2022-08-22T01:51:36.073Z,24
2022-08-22T01:54:08.296Z,29
2022-08-22T01:56:40.575Z,21
2022-08-22T01:59:13.059Z,24
2022-08-22T02:01:45.780Z,24
2022-08-22T02:04:18.161Z,25
2022-08-22T02:06:51.059Z,20
2022-08-22T02:09:23.884Z,28
2022-08-22T02:11:56.729Z,21
2022-08-22T02:14:29.107Z,24
2022-08-22T02:17:01.773Z,20
2022-08-22T02:19:34.667Z,23
2022-08-22T02:22:07.877Z,20
2022-08-22T02:24:40.621Z,17
2022-08-22T02:27:13.353Z,21
2022-08-22T02:29:45.979Z,27
2022-08-22T02:32:18.224Z,16
2022-08-22T02:34:51.006Z,17
2022-08-22T02:37:24.276Z,19
2022-08-22T02:39:57.244Z,19
2022-08-22T02:42:29.557Z,23
2022-08-22T02:45:02.752Z,20
2022-08-22T02:47:35.610Z,20
2022-08-22T02:50:13.604Z,27
2022-08-22T02:52:53.242Z,23
2022-08-22T02:55:25.339Z,20
2022-08-22T02:58:00.990Z,21
2022-08-22T03:00:33.882Z,27
2022-08-22T03:03:05.612Z,21
2022-08-22T03:05:37.902Z,21
2022-08-22T03:08:13.452Z,28
2022-08-22T03:10:45.280Z,20
2022-08-22T03:13:18.399Z,24
2022-08-22T03:15:54.002Z,24
2022-08-22T03:18:26.730Z,24
2022-08-22T03:20:59.320Z,28
2022-08-22T03:23:31.929Z,24
2022-08-22T03:26:11.600Z,24
2022-08-22T03:29:00.838Z,26
2022-08-22T03:31:31.338Z,24
2022-08-22T03:34:04.152Z,31
2022-08-22T03:36:36.623Z,26
2022-08-22T03:39:17.956Z,22
2022-08-22T03:41:48.664Z,24
2022-08-22T03:44:21.830Z,31
2022-08-22T03:46:54.346Z,25
2022-08-22T03:49:27.009Z,25
2022-08-22T03:51:59.565Z,25
2022-08-22T03:54:32.280Z,27
2022-08-22T03:57:04.902Z,24
2022-08-22T03:59:43.059Z,25
2022-08-22T04:02:44.634Z,21
2022-08-22T04:05:16.697Z,17
2022-08-22T04:07:52.764Z,16
2022-08-22T04:10:25.510Z,12
2022-08-22T04:12:57.944Z,15
2022-08-22T04:15:30.510Z,16
2022-08-22T04:18:04.389Z,13
2022-08-22T04:20:37.158Z,16
2022-08-22T04:23:10.043Z,16
2022-08-22T04:25:42.514Z,20
2022-08-22T04:28:15.688Z,19
2022-08-22T04:30:48.527Z,19
2022-08-22T04:33:21.040Z,16
2022-08-22T04:35:53.820Z,20
2022-08-22T04:38:26.820Z,20
2022-08-22T04:41:05.069Z,13
2022-08-22T04:43:36.170Z,16
2022-08-22T04:46:11.517Z,12
2022-08-22T04:48:44.166Z,14
2022-08-22T04:51:17.743Z,20
2022-08-22T04:53:49.961Z,27
2022-08-22T04:56:22.597Z,13
2022-08-22T04:58:56.325Z,13
2022-08-22T05:01:28.899Z,15
2022-08-22T05:04:01.470Z,16
2022-08-22T05:06:31.458Z,14
2022-08-22T05:09:03.394Z,15
2022-08-22T05:11:35.609Z,21
2022-08-22T05:14:07.207Z,20
2022-08-22T05:16:40.003Z,20
2022-08-22T05:19:31.287Z,60
2022-08-22T05:22:02.704Z,24
2022-08-22T05:24:35.916Z,23
2022-08-22T05:27:07.940Z,20
2022-08-22T05:29:40.346Z,23
2022-08-22T05:32:12.699Z,17
2022-08-22T05:34:45.307Z,19
2022-08-22T05:37:17.632Z,20
2022-08-22T05:39:50.932Z,18
2022-08-22T05:42:23.788Z,21
2022-08-22T05:44:56.718Z,19
2022-08-22T05:47:29.248Z,19
2022-08-22T05:50:01.909Z,20
2022-08-22T05:52:34.773Z,24
2022-08-22T05:55:07.345Z,17
2022-08-22T05:57:40.430Z,16
2022-08-22T06:00:13.057Z,21
2022-08-22T06:02:45.368Z,21
2022-08-22T06:05:18.152Z,22
2022-08-22T06:07:51.894Z,20
2022-08-22T06:10:24.460Z,19
2022-08-22T06:12:58.964Z,24
2022-08-22T06:15:32.338Z,25
2022-08-22T06:18:06.980Z,16
2022-08-22T06:20:39.764Z,20
2022-08-22T06:23:16.263Z,20
2022-08-22T06:25:52.701Z,23
2022-08-22T06:28:30.626Z,21
2022-08-22T06:31:02.247Z,21
2022-08-22T06:33:36.721Z,16
2022-08-22T06:36:09.270Z,23
2022-08-22T06:38:41.752Z,20
2022-08-22T06:41:14.284Z,20
2022-08-22T06:43:46.946Z,25
2022-08-22T06:46:19.132Z,16
2022-08-22T06:48:51.401Z,20
2022-08-22T06:51:24.547Z,21
2022-08-22T06:53:56.916Z,16
2022-08-22T06:56:29.294Z,17
2022-08-22T06:59:03.297Z,16
2022-08-22T07:01:36.440Z,15
2022-08-22T07:04:09.081Z,21
2022-08-22T07:06:42.406Z,25
2022-08-22T07:09:15.046Z,24
2022-08-22T07:11:47.480Z,21
2022-08-22T07:14:20.283Z,35
2022-08-22T07:16:52.941Z,28
2022-08-22T07:19:25.805Z,25
2022-08-22T07:21:56.439Z,21
2022-08-22T07:24:28.709Z,27
2022-08-22T07:27:01.184Z,32
2022-08-22T07:29:38.758Z,23
2022-08-22T07:32:12.520Z,31
2022-08-22T07:34:46.998Z,32
2022-08-22T07:37:19.566Z,19
2022-08-22T07:39:54.638Z,17
2022-08-22T07:42:31.132Z,20
2022-08-22T07:45:02.562Z,24
2022-08-22T07:47:33.663Z,20
2022-08-22T07:50:06.445Z,12
2022-08-22T07:52:38.864Z,19
2022-08-22T07:55:11.681Z,16
2022-08-22T07:57:45.599Z,20
2022-08-22T08:00:18.203Z,16
2022-08-22T08:02:51.034Z,19
2022-08-22T08:05:23.461Z,23
2022-08-22T08:07:56.142Z,17
2022-08-22T08:10:28.489Z,15
2022-08-22T08:13:03.282Z,15
2022-08-22T08:15:34.810Z,15
2022-08-22T08:18:07.817Z,17
2022-08-22T08:20:40.391Z,16
2022-08-22T08:23:13.065Z,20
2022-08-22T08:25:54.331Z,17
2022-08-22T08:28:25.828Z,15
2022-08-22T08:30:59.708Z,16
2022-08-22T08:33:32.254Z,13
2022-08-22T08:36:05.134Z,19
2022-08-22T08:38:37.832Z,13
2022-08-22T08:41:13.133Z,18
2022-08-22T08:43:45.220Z,17
2022-08-22T08:46:17.304Z,15
2022-08-22T08:48:54.038Z,10
2022-08-22T08:51:27.492Z,16
2022-08-22T08:53:59.742Z,20
2022-08-22T08:56:33.723Z,15
2022-08-22T08:59:11.036Z,16
2022-08-22T09:01:43.771Z,16
2022-08-22T09:04:16.136Z,16
2022-08-22T09:42:56.228Z,15
2022-08-22T09:45:36.178Z,16
2022-08-22T09:48:08.903Z,15
2022-08-22T09:50:43.911Z,13
2022-08-22T09:53:19.971Z,15
2022-08-22T09:55:52.652Z,13
2022-08-22T09:58:41.938Z,17
2022-08-22T10:01:13.786Z,17
2022-08-22T10:03:48.125Z,16
2022-08-22T10:06:25.133Z,15
2022-08-22T10:08:58.489Z,12
2022-08-22T10:11:30.961Z,13
2022-08-22T10:14:05.227Z,12
2022-08-22T10:16:37.797Z,12
2022-08-22T10:19:12.299Z,12
2022-08-22T10:21:44.920Z,15
2022-08-22T10:24:27.242Z,13
2022-08-22T10:26:58.720Z,16
2022-08-22T10:29:36.080Z,13
2022-08-22T10:32:16.217Z,12
2022-08-22T10:34:48.998Z,16
2022-08-22T10:37:24.280Z,13
2022-08-22T10:39:56.540Z,17
2022-08-22T10:42:36.692Z,21
2022-08-22T10:45:08.440Z,25
2022-08-22T10:47:41.857Z,28
2022-08-22T10:50:20.748Z,24
2022-08-22T10:52:51.700Z,28
2022-08-22T10:55:28.457Z,22
2022-08-22T10:58:04.162Z,19
2022-08-22T11:00:35.425Z,23
2022-08-22T11:03:23.403Z,21
2022-08-22T11:05:55.682Z,20
2022-08-22T11:08:28.981Z,29
2022-08-22T11:11:04.612Z,27
2022-08-22T11:13:36.753Z,31
2022-08-22T11:16:13.879Z,29
2022-08-22T11:19:15.822Z,19
2022-08-22T11:21:46.221Z,25
2022-08-22T11:24:57.554Z,28
2022-08-22T11:27:41.353Z,41
2022-08-22T11:30:19.385Z,24
2022-08-22T11:33:00.133Z,23
2022-08-22T11:35:35.475Z,28
2022-08-22T11:38:11.686Z,28
2022-08-22T11:40:43.872Z,31
2022-08-22T11:43:18.707Z,34
2022-08-22T11:45:51.632Z,40
2022-08-22T11:48:25.460Z,28
2022-08-22T11:50:55.943Z,28
2022-08-22T11:53:33.641Z,24
2022-08-22T11:56:06.012Z,31
2022-08-22T11:58:41.677Z,23
2022-08-22T12:01:18.993Z,18
2022-08-22T12:03:59.175Z,20
2022-08-22T12:06:37.561Z,23
2022-08-22T12:09:11.231Z,20
2022-08-22T12:11:43.671Z,20
2022-08-22T12:14:19.467Z,20
2022-08-22T12:16:57.040Z,21
2022-08-22T12:19:33.370Z,23
2022-08-22T12:22:08.049Z,20
2022-08-22T12:24:43.625Z,25
2022-08-22T12:27:29.600Z,30
2022-08-22T12:30:00.680Z,27
2022-08-22T12:32:34.420Z,31
2022-08-22T12:35:17.182Z,25
2022-08-22T12:38:03.823Z,24
2022-08-22T12:41:09.022Z,25
2022-08-22T12:43:43.258Z,24
2022-08-22T12:46:15.060Z,24
2022-08-22T12:48:48.599Z,29
2022-08-22T12:51:21.165Z,24
2022-08-22T12:53:53.874Z,24
2022-08-22T12:56:27.195Z,21
2022-08-22T12:59:00.639Z,24
2022-08-22T13:01:43.933Z,21
2022-08-22T13:04:34.470Z,24
2022-08-22T13:07:06.869Z,25
2022-08-22T13:09:37.529Z,25
2022-08-22T13:12:10.699Z,24
2022-08-22T13:14:42.796Z,25
2022-08-22T13:17:27.047Z,25
2022-08-22T13:19:59.201Z,36
2022-08-22T13:22:32.622Z,24
2022-08-22T13:25:08.965Z,20
2022-08-22T13:27:51.829Z,31
2022-08-22T13:30:23.110Z,28
2022-08-22T13:32:59.843Z,21
2022-08-22T13:35:32.882Z,24
2022-08-22T13:38:05.220Z,24
2022-08-22T13:40:45.527Z,21
2022-08-22T13:43:15.660Z,23
2022-08-22T13:45:48.208Z,24
2022-08-22T13:48:29.094Z,20
2022-08-22T13:51:05.066Z,21
2022-08-22T13:53:49.831Z,25
2022-08-22T13:56:51.519Z,29
2022-08-22T14:00:01.651Z,26
2022-08-22T14:02:37.566Z,25
2022-08-22T14:05:18.243Z,26
2022-08-22T14:08:02.592Z,30
2022-08-22T14:10:47.064Z,27
2022-08-22T14:13:47.742Z,25
2022-08-22T14:16:20.159Z,26
2022-08-22T14:18:52.187Z,28
2022-08-22T14:21:24.929Z,30
2022-08-22T14:23:58.464Z,33
2022-08-22T14:26:48.066Z,32
2022-08-22T14:29:19.065Z,40
2022-08-22T14:31:51.923Z,40
2022-08-22T14:34:24.592Z,37
2022-08-22T14:36:57.453Z,48
2022-08-22T14:39:29.961Z,40
2022-08-22T14:42:12.366Z,32
2022-08-22T14:44:45.689Z,49
2022-08-22T14:48:33.214Z,30
2022-08-22T14:51:11.598Z,30
2022-08-22T14:53:44.833Z,27
2022-08-22T14:56:18.586Z,23
2022-08-22T14:58:50.517Z,34
2022-08-22T15:01:25.564Z,29
2022-08-22T15:04:03.626Z,29
2022-08-22T15:06:37.392Z,29
2022-08-22T15:09:09.323Z,32
2022-08-22T15:11:44.420Z,27
2022-08-22T15:14:25.001Z,28
2022-08-22T15:16:58.677Z,31
2022-08-22T15:19:35.341Z,27
2022-08-22T15:22:14.624Z,33
2022-08-22T15:25:14.450Z,31
2022-08-22T15:27:54.828Z,28
2022-08-22T15:30:27.478Z,26
2022-08-22T15:33:05.752Z,32
2022-08-22T15:35:39.731Z,44
2022-08-22T15:38:16.365Z,29
2022-08-22T15:40:47.366Z,47
2022-08-22T15:43:20.351Z,33
2022-08-22T15:45:53.455Z,25
2022-08-22T15:48:25.988Z,33
2022-08-22T15:50:58.565Z,32
2022-08-22T15:53:34.308Z,40
2022-08-22T15:56:05.914Z,39
2022-08-22T15:58:38.972Z,30
2022-08-22T16:01:22.720Z,32
2022-08-22T16:03:54.184Z,21
2022-08-22T16:06:26.765Z,27
2022-08-22T16:08:58.840Z,24
2022-08-22T16:11:34.282Z,28
2022-08-22T16:14:09.304Z,25
2022-08-22T16:16:39.829Z,24
2022-08-22T16:19:12.345Z,21
2022-08-22T16:21:44.746Z,24
2022-08-22T16:24:17.331Z,20
2022-08-22T16:26:49.823Z,25
2022-08-22T16:29:22.522Z,25
2022-08-22T16:31:57.827Z,18
2022-08-22T16:34:31.478Z,25
2022-08-22T16:37:04.180Z,21
2022-08-22T16:39:36.915Z,21
2022-08-22T16:42:09.915Z,21
2022-08-22T16:44:42.163Z,21
2022-08-22T16:47:16.593Z,17
2022-08-22T16:49:48.980Z,20
2022-08-22T16:52:21.583Z,23
2022-08-22T16:54:54.350Z,23
2022-08-22T16:57:27.243Z,23
2022-08-22T16:59:59.993Z,27
2022-08-22T17:02:32.543Z,24
2022-08-22T17:05:04.997Z,18
2022-08-22T17:07:37.762Z,21
2022-08-22T17:10:12.893Z,25
2022-08-22T17:12:44.330Z,23
2022-08-22T17:15:17.109Z,23
2022-08-22T17:17:50.559Z,27
2022-08-22T17:20:23.079Z,20
2022-08-22T17:22:56.050Z,24
2022-08-22T17:25:28.868Z,24
2022-08-22T17:28:04.229Z,25
2022-08-22T17:30:36.539Z,25
2022-08-22T17:33:09.010Z,28
2022-08-22T17:35:41.718Z,32
2022-08-22T17:38:14.521Z,35
2022-08-22T17:40:47.221Z,31
2022-08-22T17:43:19.465Z,32
2022-08-22T17:45:52.388Z,31
2022-08-22T17:48:24.804Z,31
2022-08-22T17:50:57.585Z,35
2022-08-22T17:53:30.343Z,33
2022-08-22T17:56:02.921Z,30
2022-08-22T17:58:44.599Z,31
2022-08-22T18:01:16.738Z,30
2022-08-22T18:03:49.939Z,30
2022-08-22T18:06:23.089Z,27
2022-08-22T18:09:27.000Z,32
2022-08-22T18:11:57.068Z,35
2022-08-22T18:14:31.180Z,30
2022-08-22T18:17:03.741Z,27
2022-08-22T18:19:36.782Z,30
2022-08-22T18:22:11.540Z,31
2022-08-22T18:24:44.240Z,28
2022-08-22T18:27:35.940Z,32
2022-08-22T18:30:06.449Z,27
2022-08-22T18:32:43.864Z,33
2022-08-22T18:35:21.049Z,32
2022-08-22T18:37:54.802Z,28
2022-08-22T18:40:28.207Z,21
2022-08-22T18:43:01.812Z,29
2022-08-22T18:45:45.076Z,29
2022-08-22T18:48:15.968Z,28
2022-08-22T18:50:48.677Z,32
2022-08-22T18:53:21.339Z,46
2022-08-22T18:55:53.903Z,32
2022-08-22T18:58:26.617Z,36
2022-08-22T19:00:59.248Z,51
2022-08-22T19:03:36.342Z,40
2022-08-22T19:06:07.820Z,37
2022-08-22T19:08:42.100Z,44
2022-08-22T19:11:13.749Z,40
2022-08-22T19:13:46.311Z,52
2022-08-22T19:16:18.981Z,46
2022-08-22T19:18:52.062Z,49
2022-08-22T19:21:24.567Z,41
2022-08-22T19:23:57.202Z,48
2022-08-22T19:26:40.991Z,40
2022-08-22T19:29:21.257Z,44
2022-08-22T19:31:53.562Z,34
2022-08-22T19:34:27.846Z,38
2022-08-22T19:37:01.038Z,51
2022-08-22T19:39:34.081Z,29
2022-08-22T19:42:14.597Z,45
2022-08-22T19:44:45.251Z,36
2022-08-22T19:47:17.897Z,43
2022-08-22T19:49:50.365Z,57
2022-08-22T19:52:25.020Z,52
2022-08-22T19:54:57.509Z,51
2022-08-22T19:57:30.194Z,39
2022-08-22T20:00:02.637Z,52
2022-08-22T20:02:35.288Z,43
2022-08-22T20:05:07.781Z,41
2022-08-22T20:07:40.548Z,36
2022-08-22T20:10:16.027Z,36
2022-08-22T20:12:48.887Z,39
2022-08-22T20:15:22.047Z,52
2022-08-22T20:19:05.411Z,43
2022-08-22T20:21:41.926Z,51
2022-08-22T20:24:15.650Z,38
2022-08-22T20:27:16.605Z,36
2022-08-22T20:29:47.299Z,37
2022-08-22T20:32:19.601Z,24
2022-08-22T20:34:52.224Z,33
2022-08-22T20:38:07.145Z,32
2022-08-22T20:40:59.816Z,30
2022-08-22T20:43:31.601Z,27
2022-08-22T20:46:05.074Z,32
2022-08-22T20:48:38.999Z,35
2022-08-22T20:51:11.813Z,37
2022-08-22T20:53:43.786Z,53
2022-08-22T20:56:20.995Z,63
2022-08-22T20:58:53.053Z,45
2022-08-22T21:01:28.854Z,46
2022-08-22T21:04:00.714Z,31
2022-08-22T21:06:32.726Z,31
2022-08-22T21:09:06.059Z,32
2022-08-22T21:11:38.632Z,29
2022-08-22T21:14:11.313Z,28
2022-08-22T21:16:43.955Z,32
2022-08-22T21:19:16.245Z,33
2022-08-22T21:21:47.722Z,38
2022-08-22T21:24:19.760Z,31
2022-08-22T21:26:51.904Z,39
2022-08-22T21:29:24.283Z,26
2022-08-22T21:32:05.253Z,29
2022-08-22T21:34:35.818Z,31
2022-08-22T21:37:08.256Z,29
2022-08-22T21:39:41.144Z,29
2022-08-22T21:42:13.413Z,27
2022-08-22T21:44:46.020Z,32
2022-08-22T21:47:31.982Z,17
2022-08-22T21:50:02.549Z,27
2022-08-22T21:52:34.911Z,31
2022-08-22T21:55:07.448Z,32
2022-08-22T21:57:42.967Z,28
2022-08-22T22:00:14.649Z,24
2022-08-22T22:02:50.425Z,27
2022-08-22T22:05:23.054Z,24
2022-08-22T22:07:55.762Z,57
2022-08-22T22:10:28.410Z,31
2022-08-22T22:13:01.038Z,25
2022-08-22T22:15:36.160Z,32
2022-08-22T22:18:07.074Z,27
2022-08-22T22:20:39.302Z,29
2022-08-22T22:23:11.663Z,32
2022-08-22T22:25:43.910Z,34
2022-08-22T22:28:16.208Z,32
2022-08-22T22:30:48.086Z,29
2022-08-22T22:33:20.269Z,33
2022-08-22T22:35:53.238Z,28
2022-08-22T22:38:25.726Z,31
2022-08-22T22:41:01.011Z,28
2022-08-22T22:43:33.044Z,27
2022-08-22T22:46:07.585Z,32
2022-08-22T22:48:40.038Z,31
2022-08-22T22:51:15.585Z,28
2022-08-22T22:53:46.013Z,32
2022-08-22T22:56:21.901Z,31
2022-08-22T22:59:14.688Z,30
2022-08-22T23:01:45.652Z,27
2022-08-22T23:04:18.578Z,24
2022-08-22T23:06:50.700Z,32
2022-08-22T23:09:44.497Z,27
2022-08-22T23:12:16.481Z,28
2022-08-22T23:14:48.932Z,31
2022-08-22T23:17:21.223Z,28
2022-08-22T23:19:53.763Z,28
2022-08-22T23:22:27.062Z,36
2022-08-22T23:24:59.406Z,35
2022-08-22T23:27:32.008Z,27
2022-08-22T23:30:04.551Z,28
2022-08-22T23:32:36.716Z,37
2022-08-22T23:35:09.522Z,32
2022-08-22T23:37:42.145Z,33
2022-08-22T23:40:15.459Z,28
2022-08-22T23:42:47.839Z,25
2022-08-22T23:45:20.175Z,24
2022-08-22T23:47:55.569Z,27
2022-08-22T23:50:28.121Z,23
2022-08-22T23:53:00.175Z,23
2022-08-22T23:55:32.963Z,22
2022-08-22T23:58:05.422Z,29
